Hyundai Republic — A8IL3 — position and weather

sailwx.info

Track history (hours):
 
Tides and Currents Weather Stations Pressure Air Temp Water Temp Dewpoint Dewpoint Depression Visibility Wind Speed Wind Dir Waves Ship Positions

Hyundai Republic

Last reported at 2015-Mar-25 07:18 UTC. Time now 2015-Mar-29 07:23 UTC.
Position N 08°50' W 015°33'.

Length 305 m; draft 13.5 m.

Type: Ship (hazmat cat A). MMSI: 636090994.

Date/timePositionNaut miles runAvg speedWind from/ knotsBaromVisibWave heightAir tempDewpointWater temp
2015-Mar-25 07:18N 08°50' W 015°33'1720.2
2015-Mar-25 06:27N 09°04' W 015°43'1920.5
2015-Mar-25 05:31N 09°20' W 015°55'  
2015-Mar-22 20:22N 27°41' W 015°19'1620.2
2015-Mar-22 19:33N 27°57' W 015°18'1211.6
2015-Mar-22 18:33N 28°08' W 015°25'0 0.3
2015-Mar-22 17:26N 28°08' W 015°25'0 0.0
2015-Mar-22 16:26N 28°08' W 015°25'0 0.0
2015-Mar-22 15:26N 28°08' W 015°25'0 0.0
2015-Mar-22 14:29N 28°08' W 015°25'0 0.0
2015-Mar-22 13:29N 28°08' W 015°25'0 0.0
2015-Mar-22 12:29N 28°08' W 015°25'0 0.0
2015-Mar-22 11:29N 28°08' W 015°25'0 0.0
2015-Mar-22 10:29N 28°08' W 015°25'0 0.0
2015-Mar-22 09:32N 28°08' W 015°25'0 0.0
2015-Mar-22 08:32N 28°08' W 015°25'0 0.0
2015-Mar-22 07:32N 28°08' W 015°25'0 0.0
2015-Mar-22 06:32N 28°08' W 015°25'0 0.0
2015-Mar-22 05:32N 28°08' W 015°25'0 0.0
2015-Mar-22 04:32N 28°08' W 015°25'0 0.0
2015-Mar-22 03:32N 28°08' W 015°25'0 0.0
2015-Mar-22 02:32N 28°08' W 015°25'0 0.0
2015-Mar-22 01:32N 28°08' W 015°25'2 1.9
2015-Mar-22 00:33N 28°07' W 015°23'1515.0
2015-Mar-21 23:34N 28°20' W 015°15'2121.3
2015-Mar-21 22:33N 28°39' W 015°03'2121.0
2015-Mar-21 21:33N 28°58' W 014°52'58918.4
2015-Mar-20 13:30N 37°33' W 009°12'1718.5
2015-Mar-20 12:33N 37°46' W 008°58'1110.9
2015-Mar-20 11:33N 37°56' W 008°51'0 0.0
2015-Mar-20 10:33N 37°56' W 008°51'0 0.0
2015-Mar-20 09:33N 37°56' W 008°51'0 0.0
2015-Mar-20 08:32N 37°56' W 008°51'0 0.0
2015-Mar-20 07:33N 37°56' W 008°51'0 0.0
2015-Mar-20 06:32N 37°56' W 008°51'0 0.0
2015-Mar-20 05:32N 37°56' W 008°51'0 0.0
2015-Mar-20 04:33N 37°56' W 008°51'0 0.0
2015-Mar-20 03:33N 37°56' W 008°51'0 0.0
2015-Mar-20 02:32N 37°56' W 008°51'0 0.0
2015-Mar-20 01:33N 37°56' W 008°51'0 0.0
2015-Mar-20 00:32N 37°56' W 008°51'1 0.7
2015-Mar-19 23:33N 37°55' W 008°50'6 6.0
2015-Mar-19 22:33N 37°58' W 008°57'2019.6
2015-Mar-19 21:33N 38°10' W 009°17'2120.8
2015-Mar-19 20:33N 38°22' W 009°39'2120.9
2015-Mar-19 19:33N 38°34' W 010°01'2020.4
2015-Mar-19 18:33N 38°53' W 010°06'2321.6
2015-Mar-19 17:29N 39°17' W 010°05'73718.0
2015-Mar-18 00:31N 49°53' W 001°21'1919.8
2015-Mar-17 23:33N 49°45' W 000°55'1918.7
2015-Mar-17 22:33N 49°38' W 000°28'1616.5
2015-Mar-17 21:33N 49°31' W 000°05'9 9.3
2015-Mar-17 20:33N 49°28' E 000°08'0 0.0
2015-Mar-17 19:31N 49°28' E 000°08'0 0.0
2015-Mar-17 18:31N 49°28' E 000°08'0 0.0
2015-Mar-17 17:31N 49°28' E 000°08'0 0.0
2015-Mar-17 16:31N 49°28' E 000°08'0 0.0
2015-Mar-17 15:31N 49°28' E 000°08'0 0.0
2015-Mar-17 14:31N 49°28' E 000°08'0 0.0
2015-Mar-17 13:31N 49°28' E 000°08'0 0.0
2015-Mar-17 12:31N 49°28' E 000°08'0 0.0
2015-Mar-17 11:31N 49°28' E 000°08'0 0.0
2015-Mar-17 10:31N 49°28' E 000°08'0 0.0
2015-Mar-17 09:31N 49°28' E 000°08'0 0.0
2015-Mar-17 08:31N 49°28' E 000°08'0 0.0
2015-Mar-17 07:31N 49°28' E 000°08'0 0.0
2015-Mar-17 06:31N 49°28' E 000°08'0 0.0
2015-Mar-17 05:25N 49°28' E 000°08'0 0.0
2015-Mar-17 04:31N 49°28' E 000°08'0 0.0
2015-Mar-17 03:33N 49°28' E 000°08'3 3.1
2015-Mar-17 02:34N 49°29' E 000°04'1111.5
2015-Mar-17 01:34N 49°35' W 000°11'1414.3
2015-Mar-17 00:33N 49°49' W 000°12'1414.2
2015-Mar-16 23:33N 50°03' W 000°08'2713.2
2015-Mar-16 21:29N 50°29' E 000°04'1414.6
2015-Mar-16 20:33N 50°32' E 000°25'1313.4
2015-Mar-16 19:33N 50°38' E 000°44'1413.7
2015-Mar-16 18:34N 50°46' E 001°02'1414.0
2015-Mar-16 17:32N 50°55' E 001°19'1515.7
2015-Mar-16 16:34N 51°07' E 001°35'1616.1
2015-Mar-16 15:33N 51°19' E 001°52'1211.6
2015-Mar-16 14:34N 51°23' E 002°09'1413.9
2015-Mar-16 13:33N 51°23' E 002°32'1313.5
2015-Mar-16 12:33N 51°25' E 002°53'1615.5
2015-Mar-16 11:33N 51°25' E 003°18'1312.8
2015-Mar-16 10:33N 51°26' E 003°38'1111.0
2015-Mar-16 09:34N 51°22' E 003°54'7 7.1
2015-Mar-16 08:33N 51°22' E 004°06'7 7.3
2015-Mar-16 07:34N 51°21' E 004°17'0 0.0
2015-Mar-16 06:34N 51°21' E 004°17'2 1.7
2015-Mar-16 05:33N 51°19' E 004°19'0 0.4
2015-Mar-16 04:32N 51°19' E 004°19'0 0.0
2015-Mar-16 03:32N 51°19' E 004°19'0 0.0
2015-Mar-16 02:32N 51°19' E 004°19'0 0.0
2015-Mar-16 01:29N 51°19' E 004°19'0 0.0
2015-Mar-16 00:32N 51°19' E 004°19'0 0.0
2015-Mar-15 23:32N 51°19' E 004°19'0 0.0
2015-Mar-15 22:31N 51°19' E 004°19'0 0.0
2015-Mar-15 21:31N 51°19' E 004°19'0 0.0
2015-Mar-15 20:28N 51°19' E 004°19'0 0.0
2015-Mar-15 19:31N 51°19' E 004°19'0 0.0
2015-Mar-15 18:31N 51°19' E 004°19'0 0.0
2015-Mar-15 17:10N 51°19' E 004°19'0 0.0
2015-Mar-15 16:31N 51°19' E 004°19'0 0.0
2015-Mar-15 15:31N 51°19' E 004°19'0 0.0
2015-Mar-15 14:31N 51°19' E 004°19'0 0.0
2015-Mar-15 13:28N 51°19' E 004°19'0 0.0
2015-Mar-15 12:31N 51°19' E 004°19'0 0.0
2015-Mar-15 11:31N 51°19' E 004°19'0 0.0
2015-Mar-15 10:31N 51°19' E 004°19'0 0.0
2015-Mar-15 09:31N 51°19' E 004°19'0 0.0
2015-Mar-15 08:25N 51°19' E 004°19'0 0.0
2015-Mar-15 07:28N 51°19' E 004°19'  
Track history (hours):
 
Tides and Currents Weather Stations Pressure Air Temp Water Temp Dewpoint Dewpoint Depression Visibility Wind Speed Wind Dir Waves Ship Positions

Hyundai Republic

Last reported at 2015-Mar-25 07:18 UTC. Time now 2015-Mar-29 07:23 UTC.
Position N 08°50' W 015°33'.

Length 305 m; draft 13.5 m.

Type: Ship (hazmat cat A). MMSI: 636090994.

Date/timePositionNaut miles runAvg speedWind from/ knotsBaromVisibWave heightAir tempDewpointWater temp
2015-Mar-25 07:18N 08°50' W 015°33'1720.2
2015-Mar-25 06:27N 09°04' W 015°43'1920.5
2015-Mar-25 05:31N 09°20' W 015°55'  
2015-Mar-22 20:22N 27°41' W 015°19'1620.2
2015-Mar-22 19:33N 27°57' W 015°18'1211.6
2015-Mar-22 18:33N 28°08' W 015°25'0 0.3
2015-Mar-22 17:26N 28°08' W 015°25'0 0.0
2015-Mar-22 16:26N 28°08' W 015°25'0 0.0
2015-Mar-22 15:26N 28°08' W 015°25'0 0.0
2015-Mar-22 14:29N 28°08' W 015°25'0 0.0
2015-Mar-22 13:29N 28°08' W 015°25'0 0.0
2015-Mar-22 12:29N 28°08' W 015°25'0 0.0
2015-Mar-22 11:29N 28°08' W 015°25'0 0.0
2015-Mar-22 10:29N 28°08' W 015°25'0 0.0
2015-Mar-22 09:32N 28°08' W 015°25'0 0.0
2015-Mar-22 08:32N 28°08' W 015°25'0 0.0
2015-Mar-22 07:32N 28°08' W 015°25'0 0.0
2015-Mar-22 06:32N 28°08' W 015°25'0 0.0
2015-Mar-22 05:32N 28°08' W 015°25'0 0.0
2015-Mar-22 04:32N 28°08' W 015°25'0 0.0
2015-Mar-22 03:32N 28°08' W 015°25'0 0.0
2015-Mar-22 02:32N 28°08' W 015°25'0 0.0
2015-Mar-22 01:32N 28°08' W 015°25'2 1.9
2015-Mar-22 00:33N 28°07' W 015°23'1515.0
2015-Mar-21 23:34N 28°20' W 015°15'2121.3
2015-Mar-21 22:33N 28°39' W 015°03'2121.0
2015-Mar-21 21:33N 28°58' W 014°52'58918.4
2015-Mar-20 13:30N 37°33' W 009°12'1718.5
2015-Mar-20 12:33N 37°46' W 008°58'1110.9
2015-Mar-20 11:33N 37°56' W 008°51'0 0.0
2015-Mar-20 10:33N 37°56' W 008°51'0 0.0
2015-Mar-20 09:33N 37°56' W 008°51'0 0.0
2015-Mar-20 08:32N 37°56' W 008°51'0 0.0
2015-Mar-20 07:33N 37°56' W 008°51'0 0.0
2015-Mar-20 06:32N 37°56' W 008°51'0 0.0
2015-Mar-20 05:32N 37°56' W 008°51'0 0.0
2015-Mar-20 04:33N 37°56' W 008°51'0 0.0
2015-Mar-20 03:33N 37°56' W 008°51'0 0.0
2015-Mar-20 02:32N 37°56' W 008°51'0 0.0
2015-Mar-20 01:33N 37°56' W 008°51'0 0.0
2015-Mar-20 00:32N 37°56' W 008°51'1 0.7
2015-Mar-19 23:33N 37°55' W 008°50'6 6.0
2015-Mar-19 22:33N 37°58' W 008°57'2019.6
2015-Mar-19 21:33N 38°10' W 009°17'2120.8
2015-Mar-19 20:33N 38°22' W 009°39'2120.9
2015-Mar-19 19:33N 38°34' W 010°01'2020.4
2015-Mar-19 18:33N 38°53' W 010°06'2321.6
2015-Mar-19 17:29N 39°17' W 010°05'73718.0
2015-Mar-18 00:31N 49°53' W 001°21'1919.8
2015-Mar-17 23:33N 49°45' W 000°55'1918.7
2015-Mar-17 22:33N 49°38' W 000°28'1616.5
2015-Mar-17 21:33N 49°31' W 000°05'9 9.3
2015-Mar-17 20:33N 49°28' E 000°08'0 0.0
2015-Mar-17 19:31N 49°28' E 000°08'0 0.0
2015-Mar-17 18:31N 49°28' E 000°08'0 0.0
2015-Mar-17 17:31N 49°28' E 000°08'0 0.0
2015-Mar-17 16:31N 49°28' E 000°08'0 0.0
2015-Mar-17 15:31N 49°28' E 000°08'0 0.0
2015-Mar-17 14:31N 49°28' E 000°08'0 0.0
2015-Mar-17 13:31N 49°28' E 000°08'0 0.0
2015-Mar-17 12:31N 49°28' E 000°08'0 0.0
2015-Mar-17 11:31N 49°28' E 000°08'0 0.0
2015-Mar-17 10:31N 49°28' E 000°08'0 0.0
2015-Mar-17 09:31N 49°28' E 000°08'0 0.0
2015-Mar-17 08:31N 49°28' E 000°08'0 0.0
2015-Mar-17 07:31N 49°28' E 000°08'0 0.0
2015-Mar-17 06:31N 49°28' E 000°08'0 0.0
2015-Mar-17 05:25N 49°28' E 000°08'0 0.0
2015-Mar-17 04:31N 49°28' E 000°08'0 0.0
2015-Mar-17 03:33N 49°28' E 000°08'3 3.1
2015-Mar-17 02:34N 49°29' E 000°04'1111.5
2015-Mar-17 01:34N 49°35' W 000°11'1414.3
2015-Mar-17 00:33N 49°49' W 000°12'1414.2
2015-Mar-16 23:33N 50°03' W 000°08'2713.2
2015-Mar-16 21:29N 50°29' E 000°04'1414.6
2015-Mar-16 20:33N 50°32' E 000°25'1313.4
2015-Mar-16 19:33N 50°38' E 000°44'1413.7
2015-Mar-16 18:34N 50°46' E 001°02'1414.0
2015-Mar-16 17:32N 50°55' E 001°19'1515.7
2015-Mar-16 16:34N 51°07' E 001°35'1616.1
2015-Mar-16 15:33N 51°19' E 001°52'1211.6
2015-Mar-16 14:34N 51°23' E 002°09'1413.9
2015-Mar-16 13:33N 51°23' E 002°32'1313.5
2015-Mar-16 12:33N 51°25' E 002°53'1615.5
2015-Mar-16 11:33N 51°25' E 003°18'1312.8
2015-Mar-16 10:33N 51°26' E 003°38'1111.0
2015-Mar-16 09:34N 51°22' E 003°54'7 7.1
2015-Mar-16 08:33N 51°22' E 004°06'7 7.3
2015-Mar-16 07:34N 51°21' E 004°17'0 0.0
2015-Mar-16 06:34N 51°21' E 004°17'2 1.7
2015-Mar-16 05:33N 51°19' E 004°19'0 0.4
2015-Mar-16 04:32N 51°19' E 004°19'0 0.0
2015-Mar-16 03:32N 51°19' E 004°19'0 0.0
2015-Mar-16 02:32N 51°19' E 004°19'0 0.0
2015-Mar-16 01:29N 51°19' E 004°19'0 0.0
2015-Mar-16 00:32N 51°19' E 004°19'0 0.0
2015-Mar-15 23:32N 51°19' E 004°19'0 0.0
2015-Mar-15 22:31N 51°19' E 004°19'0 0.0
2015-Mar-15 21:31N 51°19' E 004°19'0 0.0
2015-Mar-15 20:28N 51°19' E 004°19'0 0.0
2015-Mar-15 19:31N 51°19' E 004°19'0 0.0
2015-Mar-15 18:31N 51°19' E 004°19'0 0.0
2015-Mar-15 17:10N 51°19' E 004°19'0 0.0
2015-Mar-15 16:31N 51°19' E 004°19'0 0.0
2015-Mar-15 15:31N 51°19' E 004°19'0 0.0
2015-Mar-15 14:31N 51°19' E 004°19'0 0.0
2015-Mar-15 13:28N 51°19' E 004°19'0 0.0
2015-Mar-15 12:31N 51°19' E 004°19'0 0.0
2015-Mar-15 11:31N 51°19' E 004°19'0 0.0
2015-Mar-15 10:31N 51°19' E 004°19'0 0.0
2015-Mar-15 09:31N 51°19' E 004°19'0 0.0
2015-Mar-15 08:25N 51°19' E 004°19'0 0.0
2015-Mar-15 07:28N 51°19' E 004°19'  

Dump ship's entire track history